Погода Стриганецкие Буснина неделю

Брестская область, Белоруссия

18 - 24 июля
  • 18июля
    Сегодня
    +16°
    +27°
    Ясно и безоблачно
    ВремяПогодаТемператураВлажностьДавлениеВетер, м/сВероятность осадков
    00:00Облачно с прояснениями+22°C83 %752 мм2.7 м/с12 %
    03:00Облачно с прояснениями+21°C75 %752 мм2.4 м/с24 %
    06:00Небольшая облачность, ливень+19°C84 %753 мм2.0 м/с58 %
    09:00Небольшая облачность, ливень+20°C84 %753 мм2.3 м/с60 %
    12:00Ясно и безоблачно+24°C51 %753 мм4.0 м/с13 %
    15:00Ясно и безоблачно+26°C43 %753 мм5.0 м/с4 %
    18:00Практически безоблачно+26°C41 %753 мм5.0 м/с2 %
    21:00Практически безоблачно+23°C55 %753 мм2.1 м/с2 %
  • 19июля
    Пятница
    +15°
    +27°
    Ясно и безоблачно
    ВремяПогодаТемператураВлажностьДавлениеВетер, м/сВероятность осадков
    00:00Практически безоблачно+20°C64 %753 мм2.7 м/с2 %
    03:00Небольшая облачность+18°C74 %753 мм2.9 м/с2 %
    06:00Практически безоблачно+16°C80 %753 мм2.0 м/с2 %
    09:00Облачно с прояснениями+19°C68 %754 мм2.2 м/с2 %
    12:00Ясно и безоблачно+23°C50 %753 мм3.5 м/с2 %
    15:00Ясно и безоблачно+25°C41 %753 мм3.5 м/с2 %
    18:00Ясно и безоблачно+26°C42 %751 мм4.2 м/с2 %
    21:00Ясно и безоблачно+23°C57 %751 мм2.2 м/с2 %
  • 20июля
    Суббота
    +15°
    +27°
    Ясно и безоблачно
    ВремяПогодаТемператураВлажностьДавлениеВетер, м/сВероятность осадков
    00:00Ясно и безоблачно+19°C68 %751 мм2.2 м/с2 %
    03:00Ясно и безоблачно+17°C73 %751 мм2.5 м/с2 %
    06:00Небольшая облачность+15°C84 %750 мм1.6 м/с2 %
    09:00Практически безоблачно+19°C61 %750 мм1.6 м/с2 %
    12:00Облачно с прояснениями+23°C44 %749 мм2.8 м/с2 %
    15:00Ясно и безоблачно+25°C36 %748 мм2.4 м/с2 %
    18:00Ясно и безоблачно+27°C35 %747 мм2.5 м/с2 %
    21:00Ясно и безоблачно+23°C57 %747 мм2.1 м/с2 %
  • 21июля
    Воскресенье
    +16°
    +29°
    Небольшая облачность
    ВремяПогодаТемператураВлажностьДавлениеВетер, м/сВероятность осадков
    00:00Ясно и безоблачно+19°C59 %747 мм2.1 м/с2 %
    03:00Ясно и безоблачно+16°C78 %746 мм2.0 м/с2 %
    06:00Ясно и безоблачно+16°C70 %746 мм1.3 м/с2 %
    09:00Ясно и безоблачно+20°C57 %746 мм1.7 м/с2 %
    12:00Ясно и безоблачно+25°C40 %746 мм2.5 м/с2 %
    15:00Небольшая облачность+27°C36 %745 мм2.2 м/с3 %
    18:00Небольшая облачность+28°C33 %744 мм2.0 м/с3 %
    21:00Небольшая облачность+25°C56 %744 мм1.5 м/с2 %
  • 22июля
    Понедельник
    +18°
    +30°
    Небольшая облачность
    ВремяПогодаТемператураВлажностьДавлениеВетер, м/сВероятность осадков
    00:00Небольшая облачность+21°C64 %744 мм1.8 м/с2 %
    03:00Ясно и безоблачно+21°C74 %745 мм1.4 м/с2 %
    06:00Ясно и безоблачно+17°C79 %744 мм1.8 м/с2 %
    09:00Ясно и безоблачно+22°C51 %745 мм1.7 м/с2 %
    12:00Ясно и безоблачно+27°C34 %745 мм3.0 м/с2 %
    15:00Небольшая облачность+29°C29 %744 мм2.6 м/с5 %
    18:00Облачно с прояснениями+30°C30 %744 мм2.1 м/с11 %
    21:00Практически безоблачно+26°C51 %744 мм1.7 м/с17 %
Мы используем cookies
Соглашаюсь